LSZB METAR and TAF | Updated Today

LSZB METAR

Bern Belp Airport

Observation time: 19 min. ago

LSZB 251820Z AUTO 34006KT 9999 BKN060 19/10 Q1019

Need help? Read our tutorial on how to read METARs or read the parsed version below.

Bern Belp Airport (LSZB) METAR

  • Weather conditions on Wed, 25 May 2022 18:20:00 +0000 (19 min. ago):
  • Present conditions: Dry
  • Clouds: Broken sky at 1829 meters
  • Visibility: Greater than 10 km
  • Wind: 340 degrees at 6 knots
  • Temperature: 19 celsius
  • Dew point: 10 celsius
  • Pressure: 1019 millibars
  • Remarks: None


Useful to know...

LSZB TAF

Bern Belp Airport

TAF LSZB 251425Z 2515/2524 VRB02KT 9999 SCT055 BECMG 2517/2520 CAVOK
Observation time: 4:14 hr. ago
Need help? Read our tutorial on how to read TAFs or read the parsed version below.

Parsed version of TAF for Bern Belp Airport (LSZB)

  • From 25 May at 15:00 UTC, to day 25 of the month at 24:00 UTC
  • Clouds: Scattered at 1676 meters
  • Visibility: Greater than 10 km
  • Wind: Variable at 2
  • Expected to arise soon, from 25 May at 17:00 UTC, to day 25 of the month at 20:00 UTC
  • Visibility: Greater than 10 km